sensor_id;sensor_type;location;lat;lon;timestamp;temperature;humidity
9824;DHT22;4951;50.778;7.196;2022-09-09T00:01:49;16.20;1.00
9824;DHT22;4951;50.778;7.196;2022-09-09T00:04:26;16.10;1.00
9824;DHT22;4951;50.778;7.196;2022-09-09T00:07:03;16.10;1.00
9824;DHT22;4951;50.778;7.196;2022-09-09T00:09:37;16.00;1.00
9824;DHT22;4951;50.778;7.196;2022-09-09T00:12:11;16.00;1.00
9824;DHT22;4951;50.778;7.196;2022-09-09T00:14:45;16.00;1.00
9824;DHT22;4951;50.778;7.196;2022-09-09T00:17:20;15.90;1.00
9824;DHT22;4951;50.778;7.196;2022-09-09T00:19:56;15.90;1.00
9824;DHT22;4951;50.778;7.196;2022-09-09T00:22:29;15.80;1.00
9824;DHT22;4951;50.778;7.196;2022-09-09T00:25:04;15.80;1.00
9824;DHT22;4951;50.778;7.196;2022-09-09T00:27:43;15.80;1.00
9824;DHT22;4951;50.778;7.196;2022-09-09T00:30:15;15.90;1.00
9824;DHT22;4951;50.778;7.196;2022-09-09T00:32:45;15.90;1.00
9824;DHT22;4951;50.778;7.196;2022-09-09T00:35:18;15.90;1.00
9824;DHT22;4951;50.778;7.196;2022-09-09T00:37:50;15.90;1.00
9824;DHT22;4951;50.778;7.196;2022-09-09T00:40:24;15.90;1.00
9824;DHT22;4951;50.778;7.196;2022-09-09T00:43:06;15.80;1.00
9824;DHT22;4951;50.778;7.196;2022-09-09T00:45:52;15.80;1.00
9824;DHT22;4951;50.778;7.196;2022-09-09T00:48:26;15.80;1.00
9824;DHT22;4951;50.778;7.196;2022-09-09T00:51:09;15.80;1.00
9824;DHT22;4951;50.778;7.196;2022-09-09T00:53:51;15.80;1.00
9824;DHT22;4951;50.778;7.196;2022-09-09T00:56:26;15.80;1.00
9824;DHT22;4951;50.778;7.196;2022-09-09T00:59:00;15.80;1.00
9824;DHT22;4951;50.778;7.196;2022-09-09T01:01:45;15.80;1.00
9824;DHT22;4951;50.778;7.196;2022-09-09T01:04:16;15.80;1.00
9824;DHT22;4951;50.778;7.196;2022-09-09T01:06:50;15.80;1.00
9824;DHT22;4951;50.778;7.196;2022-09-09T01:09:24;15.80;1.00
9824;DHT22;4951;50.778;7.196;2022-09-09T01:11:59;15.90;1.00
9824;DHT22;4951;50.778;7.196;2022-09-09T01:14:38;15.90;1.00
9824;DHT22;4951;50.778;7.196;2022-09-09T01:17:13;16.00;1.00
9824;DHT22;4951;50.778;7.196;2022-09-09T01:19:54;16.00;1.00
9824;DHT22;4951;50.778;7.196;2022-09-09T01:22:32;16.00;1.00
9824;DHT22;4951;50.778;7.196;2022-09-09T01:25:22;16.10;1.00
9824;DHT22;4951;50.778;7.196;2022-09-09T01:28:06;16.10;1.00
9824;DHT22;4951;50.778;7.196;2022-09-09T01:30:40;16.10;1.00
9824;DHT22;4951;50.778;7.196;2022-09-09T01:33:39;16.20;1.00
9824;DHT22;4951;50.778;7.196;2022-09-09T01:36:26;16.20;1.00
9824;DHT22;4951;50.778;7.196;2022-09-09T01:39:21;16.20;1.00
9824;DHT22;4951;50.778;7.196;2022-09-09T01:42:19;16.20;1.00
9824;DHT22;4951;50.778;7.196;2022-09-09T01:44:54;16.20;1.00
9824;DHT22;4951;50.778;7.196;2022-09-09T01:47:21;16.20;1.00
9824;DHT22;4951;50.778;7.196;2022-09-09T01:50:20;16.20;1.00
9824;DHT22;4951;50.778;7.196;2022-09-09T01:53:03;16.30;1.00
9824;DHT22;4951;50.778;7.196;2022-09-09T01:56:15;16.20;1.00
9824;DHT22;4951;50.778;7.196;2022-09-09T01:59:25;16.30;1.00
9824;DHT22;4951;50.778;7.196;2022-09-09T02:02:13;16.30;1.00
9824;DHT22;4951;50.778;7.196;2022-09-09T02:05:16;16.30;1.00
9824;DHT22;4951;50.778;7.196;2022-09-09T02:08:14;16.40;1.00
9824;DHT22;4951;50.778;7.196;2022-09-09T02:10:55;16.40;1.00
9824;DHT22;4951;50.778;7.196;2022-09-09T02:13:37;16.40;1.00
9824;DHT22;4951;50.778;7.196;2022-09-09T02:16:47;16.40;1.00
9824;DHT22;4951;50.778;7.196;2022-09-09T02:19:29;16.30;1.00
9824;DHT22;4951;50.778;7.196;2022-09-09T02:22:24;16.30;1.00
9824;DHT22;4951;50.778;7.196;2022-09-09T02:25:11;16.30;1.00
9824;DHT22;4951;50.778;7.196;2022-09-09T02:28:02;16.30;1.00
9824;DHT22;4951;50.778;7.196;2022-09-09T02:30:46;16.30;1.00
9824;DHT22;4951;50.778;7.196;2022-09-09T02:33:41;16.40;1.00
9824;DHT22;4951;50.778;7.196;2022-09-09T02:36:12;16.40;1.00
9824;DHT22;4951;50.778;7.196;2022-09-09T02:39:08;16.40;1.00
9824;DHT22;4951;50.778;7.196;2022-09-09T02:41:38;16.40;1.00
9824;DHT22;4951;50.778;7.196;2022-09-09T02:44:35;16.50;1.00
9824;DHT22;4951;50.778;7.196;2022-09-09T02:47:28;16.50;1.00
9824;DHT22;4951;50.778;7.196;2022-09-09T02:50:26;16.50;1.00
9824;DHT22;4951;50.778;7.196;2022-09-09T02:53:07;16.50;1.00
9824;DHT22;4951;50.778;7.196;2022-09-09T02:55:42;16.50;1.00
9824;DHT22;4951;50.778;7.196;2022-09-09T02:58:15;16.50;1.00
9824;DHT22;4951;50.778;7.196;2022-09-09T03:00:49;16.50;1.00
9824;DHT22;4951;50.778;7.196;2022-09-09T03:03:18;16.50;1.00
9824;DHT22;4951;50.778;7.196;2022-09-09T03:05:49;16.50;1.00
9824;DHT22;4951;50.778;7.196;2022-09-09T03:08:17;16.50;1.00
9824;DHT22;4951;50.778;7.196;2022-09-09T03:10:45;16.50;1.00
9824;DHT22;4951;50.778;7.196;2022-09-09T03:13:14;16.50;1.00
9824;DHT22;4951;50.778;7.196;2022-09-09T03:15:42;16.50;1.00
9824;DHT22;4951;50.778;7.196;2022-09-09T03:18:14;16.50;1.00
9824;DHT22;4951;50.778;7.196;2022-09-09T03:20:42;16.50;1.00
9824;DHT22;4951;50.778;7.196;2022-09-09T03:23:10;16.50;1.00
9824;DHT22;4951;50.778;7.196;2022-09-09T03:25:46;16.50;1.00
9824;DHT22;4951;50.778;7.196;2022-09-09T03:28:14;16.50;1.00
9824;DHT22;4951;50.778;7.196;2022-09-09T03:30:42;16.50;1.00
9824;DHT22;4951;50.778;7.196;2022-09-09T03:33:11;16.50;1.00
9824;DHT22;4951;50.778;7.196;2022-09-09T03:35:38;16.50;1.00
9824;DHT22;4951;50.778;7.196;2022-09-09T03:38:07;16.50;1.00
9824;DHT22;4951;50.778;7.196;2022-09-09T03:40:36;16.50;1.00
9824;DHT22;4951;50.778;7.196;2022-09-09T03:43:05;16.50;1.00
9824;DHT22;4951;50.778;7.196;2022-09-09T03:45:33;16.50;1.00
9824;DHT22;4951;50.778;7.196;2022-09-09T03:48:01;16.50;1.00
9824;DHT22;4951;50.778;7.196;2022-09-09T03:50:29;16.60;1.00
9824;DHT22;4951;50.778;7.196;2022-09-09T03:52:58;16.50;1.00
9824;DHT22;4951;50.778;7.196;2022-09-09T03:55:25;16.50;1.00
9824;DHT22;4951;50.778;7.196;2022-09-09T03:58:06;16.50;1.00
9824;DHT22;4951;50.778;7.196;2022-09-09T04:00:42;16.50;1.00
9824;DHT22;4951;50.778;7.196;2022-09-09T04:11:19;16.50;1.00
9824;DHT22;4951;50.778;7.196;2022-09-09T04:17:00;16.50;1.00
9824;DHT22;4951;50.778;7.196;2022-09-09T04:22:54;16.50;1.00
9824;DHT22;4951;50.778;7.196;2022-09-09T04:25:22;16.50;1.00
9824;DHT22;4951;50.778;7.196;2022-09-09T04:27:53;16.50;1.00
9824;DHT22;4951;50.778;7.196;2022-09-09T04:30:37;16.50;1.00
9824;DHT22;4951;50.778;7.196;2022-09-09T04:33:20;16.60;1.00
9824;DHT22;4951;50.778;7.196;2022-09-09T04:35:50;16.60;1.00
9824;DHT22;4951;50.778;7.196;2022-09-09T04:38:26;16.60;1.00
9824;DHT22;4951;50.778;7.196;2022-09-09T04:41:05;16.60;1.00
9824;DHT22;4951;50.778;7.196;2022-09-09T04:43:52;16.60;1.00
9824;DHT22;4951;50.778;7.196;2022-09-09T04:46:22;16.60;1.00
9824;DHT22;4951;50.778;7.196;2022-09-09T04:48:51;16.60;1.00
9824;DHT22;4951;50.778;7.196;2022-09-09T04:51:20;16.60;1.00
9824;DHT22;4951;50.778;7.196;2022-09-09T04:53:49;16.60;1.00
9824;DHT22;4951;50.778;7.196;2022-09-09T04:56:18;16.60;1.00
9824;DHT22;4951;50.778;7.196;2022-09-09T04:58:55;16.60;1.00
9824;DHT22;4951;50.778;7.196;2022-09-09T05:01:40;16.60;1.00
9824;DHT22;4951;50.778;7.196;2022-09-09T05:04:08;16.60;1.00
9824;DHT22;4951;50.778;7.196;2022-09-09T05:06:36;16.60;1.00
9824;DHT22;4951;50.778;7.196;2022-09-09T05:09:04;16.60;1.00
9824;DHT22;4951;50.778;7.196;2022-09-09T05:11:33;16.60;1.00
9824;DHT22;4951;50.778;7.196;2022-09-09T05:14:16;16.60;1.00
9824;DHT22;4951;50.778;7.196;2022-09-09T05:16:46;16.60;1.00
9824;DHT22;4951;50.778;7.196;2022-09-09T05:19:21;16.60;1.00
9824;DHT22;4951;50.778;7.196;2022-09-09T05:21:51;16.60;1.00
9824;DHT22;4951;50.778;7.196;2022-09-09T05:24:23;16.60;1.00
9824;DHT22;4951;50.778;7.196;2022-09-09T05:26:54;16.60;1.00
9824;DHT22;4951;50.778;7.196;2022-09-09T05:29:26;16.60;1.00
9824;DHT22;4951;50.778;7.196;2022-09-09T05:31:56;16.60;1.00
9824;DHT22;4951;50.778;7.196;2022-09-09T05:34:29;16.60;1.00
9824;DHT22;4951;50.778;7.196;2022-09-09T05:36:57;16.60;1.00
9824;DHT22;4951;50.778;7.196;2022-09-09T05:39:25;16.60;1.00
9824;DHT22;4951;50.778;7.196;2022-09-09T05:41:55;16.60;1.00
9824;DHT22;4951;50.778;7.196;2022-09-09T05:44:25;16.60;1.00
9824;DHT22;4951;50.778;7.196;2022-09-09T05:46:55;16.60;1.00
9824;DHT22;4951;50.778;7.196;2022-09-09T05:49:23;16.60;1.00
9824;DHT22;4951;50.778;7.196;2022-09-09T05:51:51;16.60;1.00
9824;DHT22;4951;50.778;7.196;2022-09-09T05:54:23;16.60;1.00
9824;DHT22;4951;50.778;7.196;2022-09-09T05:56:55;16.60;1.00
9824;DHT22;4951;50.778;7.196;2022-09-09T05:59:22;16.70;1.00
9824;DHT22;4951;50.778;7.196;2022-09-09T06:01:56;16.70;1.00
9824;DHT22;4951;50.778;7.196;2022-09-09T06:04:37;16.70;1.00
9824;DHT22;4951;50.778;7.196;2022-09-09T06:07:07;16.70;1.00
9824;DHT22;4951;50.778;7.196;2022-09-09T06:09:38;16.70;1.00
9824;DHT22;4951;50.778;7.196;2022-09-09T06:12:08;16.80;1.00
9824;DHT22;4951;50.778;7.196;2022-09-09T06:14:40;16.80;1.00
9824;DHT22;4951;50.778;7.196;2022-09-09T06:17:09;16.80;1.00
9824;DHT22;4951;50.778;7.196;2022-09-09T06:19:37;16.80;1.00
9824;DHT22;4951;50.778;7.196;2022-09-09T06:22:08;16.80;1.00
9824;DHT22;4951;50.778;7.196;2022-09-09T06:24:41;16.90;1.00
9824;DHT22;4951;50.778;7.196;2022-09-09T06:27:25;16.90;1.00
9824;DHT22;4951;50.778;7.196;2022-09-09T06:29:54;16.90;1.00
9824;DHT22;4951;50.778;7.196;2022-09-09T06:32:24;16.90;1.00
9824;DHT22;4951;50.778;7.196;2022-09-09T06:35:08;17.00;1.00
9824;DHT22;4951;50.778;7.196;2022-09-09T06:37:44;17.00;1.00
9824;DHT22;4951;50.778;7.196;2022-09-09T06:40:16;17.00;1.00
9824;DHT22;4951;50.778;7.196;2022-09-09T06:42:44;17.00;1.00
9824;DHT22;4951;50.778;7.196;2022-09-09T06:45:31;16.90;1.00
9824;DHT22;4951;50.778;7.196;2022-09-09T06:48:01;16.90;1.00
9824;DHT22;4951;50.778;7.196;2022-09-09T06:50:31;17.00;1.00
9824;DHT22;4951;50.778;7.196;2022-09-09T06:53:01;17.00;1.00
9824;DHT22;4951;50.778;7.196;2022-09-09T06:55:39;17.00;1.00
9824;DHT22;4951;50.778;7.196;2022-09-09T06:58:29;17.10;1.00
9824;DHT22;4951;50.778;7.196;2022-09-09T07:01:07;17.10;1.00
9824;DHT22;4951;50.778;7.196;2022-09-09T07:03:37;17.10;1.00
9824;DHT22;4951;50.778;7.196;2022-09-09T07:06:17;17.10;1.00
9824;DHT22;4951;50.778;7.196;2022-09-09T07:09:01;17.10;1.00
9824;DHT22;4951;50.778;7.196;2022-09-09T07:11:32;17.10;1.00
9824;DHT22;4951;50.778;7.196;2022-09-09T07:14:00;17.00;1.00
9824;DHT22;4951;50.778;7.196;2022-09-09T07:16:36;17.10;1.00
9824;DHT22;4951;50.778;7.196;2022-09-09T07:19:10;17.20;1.00
9824;DHT22;4951;50.778;7.196;2022-09-09T07:21:39;17.40;1.00
9824;DHT22;4951;50.778;7.196;2022-09-09T07:24:29;17.50;99.90
9824;DHT22;4951;50.778;7.196;2022-09-09T07:26:58;17.60;99.90
9824;DHT22;4951;50.778;7.196;2022-09-09T07:30:04;17.70;99.90
9824;DHT22;4951;50.778;7.196;2022-09-09T07:33:53;17.80;99.90
9824;DHT22;4951;50.778;7.196;2022-09-09T07:41:22;18.00;25.90
9824;DHT22;4951;50.778;7.196;2022-09-09T07:44:50;18.20;1.00
9824;DHT22;4951;50.778;7.196;2022-09-09T07:47:21;18.30;1.00
9824;DHT22;4951;50.778;7.196;2022-09-09T07:49:59;18.50;1.00
9824;DHT22;4951;50.778;7.196;2022-09-09T07:53:22;18.60;1.00
9824;DHT22;4951;50.778;7.196;2022-09-09T08:00:59;19.00;1.00
9824;DHT22;4951;50.778;7.196;2022-09-09T08:04:56;19.00;1.00
9824;DHT22;4951;50.778;7.196;2022-09-09T08:07:27;18.90;99.90
9824;DHT22;4951;50.778;7.196;2022-09-09T08:10:04;18.80;99.90
9824;DHT22;4951;50.778;7.196;2022-09-09T08:12:52;18.70;1.00
9824;DHT22;4951;50.778;7.196;2022-09-09T08:15:21;18.70;99.90
9824;DHT22;4951;50.778;7.196;2022-09-09T08:18:04;18.60;1.00
9824;DHT22;4951;50.778;7.196;2022-09-09T08:24:00;18.60;1.00
9824;DHT22;4951;50.778;7.196;2022-09-09T08:27:34;18.60;1.00
9824;DHT22;4951;50.778;7.196;2022-09-09T08:30:31;18.70;99.90
9824;DHT22;4951;50.778;7.196;2022-09-09T08:40:49;19.20;1.00
9824;DHT22;4951;50.778;7.196;2022-09-09T08:43:33;19.40;1.00
9824;DHT22;4951;50.778;7.196;2022-09-09T08:49:24;19.60;99.90
9824;DHT22;4951;50.778;7.196;2022-09-09T08:51:56;19.70;1.00
9824;DHT22;4951;50.778;7.196;2022-09-09T08:55:20;19.70;1.00
9824;DHT22;4951;50.778;7.196;2022-09-09T08:58:35;19.80;99.90
9824;DHT22;4951;50.778;7.196;2022-09-09T09:01:51;19.90;1.00
9824;DHT22;4951;50.778;7.196;2022-09-09T09:05:09;20.00;1.00
9824;DHT22;4951;50.778;7.196;2022-09-09T09:12:16;20.00;99.90
9824;DHT22;4951;50.778;7.196;2022-09-09T09:15:39;20.10;99.90
9824;DHT22;4951;50.778;7.196;2022-09-09T09:18:22;20.30;99.90
9824;DHT22;4951;50.778;7.196;2022-09-09T09:20:54;20.40;99.90
9824;DHT22;4951;50.778;7.196;2022-09-09T09:28:15;20.90;1.00
9824;DHT22;4951;50.778;7.196;2022-09-09T09:31:11;21.10;99.90
9824;DHT22;4951;50.778;7.196;2022-09-09T09:35:10;21.10;1.00
9824;DHT22;4951;50.778;7.196;2022-09-09T09:38:36;21.10;1.00
9824;DHT22;4951;50.778;7.196;2022-09-09T09:41:07;21.00;1.00
9824;DHT22;4951;50.778;7.196;2022-09-09T09:43:37;20.90;1.00
9824;DHT22;4951;50.778;7.196;2022-09-09T09:46:21;20.80;99.90
9824;DHT22;4951;50.778;7.196;2022-09-09T09:48:57;20.70;99.90
9824;DHT22;4951;50.778;7.196;2022-09-09T09:51:29;20.60;99.90
9824;DHT22;4951;50.778;7.196;2022-09-09T09:54:09;20.60;99.90
9824;DHT22;4951;50.778;7.196;2022-09-09T09:56:49;20.60;99.90
9824;DHT22;4951;50.778;7.196;2022-09-09T09:59:23;20.60;99.90
9824;DHT22;4951;50.778;7.196;2022-09-09T10:01:52;20.50;99.90
9824;DHT22;4951;50.778;7.196;2022-09-09T10:04:21;20.50;99.90
9824;DHT22;4951;50.778;7.196;2022-09-09T10:06:51;20.60;7.90
9824;DHT22;4951;50.778;7.196;2022-09-09T10:09:22;20.70;1.00
9824;DHT22;4951;50.778;7.196;2022-09-09T10:11:56;20.80;1.00
9824;DHT22;4951;50.778;7.196;2022-09-09T10:14:31;21.00;1.00
9824;DHT22;4951;50.778;7.196;2022-09-09T10:17:15;21.00;1.00
9824;DHT22;4951;50.778;7.196;2022-09-09T10:19:57;21.00;1.00
9824;DHT22;4951;50.778;7.196;2022-09-09T10:22:34;20.90;1.00
9824;DHT22;4951;50.778;7.196;2022-09-09T10:25:26;20.80;1.00
9824;DHT22;4951;50.778;7.196;2022-09-09T10:28:19;20.80;1.00
9824;DHT22;4951;50.778;7.196;2022-09-09T10:30:59;20.80;1.00
9824;DHT22;4951;50.778;7.196;2022-09-09T10:33:37;20.90;1.00
9824;DHT22;4951;50.778;7.196;2022-09-09T10:36:13;20.90;1.00
9824;DHT22;4951;50.778;7.196;2022-09-09T10:38:42;21.00;1.00
9824;DHT22;4951;50.778;7.196;2022-09-09T10:41:15;21.00;1.00
9824;DHT22;4951;50.778;7.196;2022-09-09T10:46:43;20.90;1.00
9824;DHT22;4951;50.778;7.196;2022-09-09T10:49:23;20.80;1.00
9824;DHT22;4951;50.778;7.196;2022-09-09T10:52:01;20.60;1.00
9824;DHT22;4951;50.778;7.196;2022-09-09T10:54:53;20.60;1.00
9824;DHT22;4951;50.778;7.196;2022-09-09T10:57:50;20.60;99.90
9824;DHT22;4951;50.778;7.196;2022-09-09T11:00:22;20.50;99.90
9824;DHT22;4951;50.778;7.196;2022-09-09T11:03:01;20.50;99.90
9824;DHT22;4951;50.778;7.196;2022-09-09T11:05:35;20.70;99.90
9824;DHT22;4951;50.778;7.196;2022-09-09T11:08:10;20.90;99.90
9824;DHT22;4951;50.778;7.196;2022-09-09T11:10:42;21.00;99.90
9824;DHT22;4951;50.778;7.196;2022-09-09T11:13:17;21.10;99.90
9824;DHT22;4951;50.778;7.196;2022-09-09T11:15:50;21.20;99.90
9824;DHT22;4951;50.778;7.196;2022-09-09T11:18:40;21.30;99.90
9824;DHT22;4951;50.778;7.196;2022-09-09T11:21:17;21.50;99.90
9824;DHT22;4951;50.778;7.196;2022-09-09T11:23:54;21.70;99.90
9824;DHT22;4951;50.778;7.196;2022-09-09T11:26:31;21.90;31.70
9824;DHT22;4951;50.778;7.196;2022-09-09T11:32:05;22.00;1.00
9824;DHT22;4951;50.778;7.196;2022-09-09T11:34:53;22.00;1.00
9824;DHT22;4951;50.778;7.196;2022-09-09T11:37:54;22.20;1.00
9824;DHT22;4951;50.778;7.196;2022-09-09T11:40:24;22.30;1.00
9824;DHT22;4951;50.778;7.196;2022-09-09T11:43:03;22.40;1.00
9824;DHT22;4951;50.778;7.196;2022-09-09T11:45:33;22.50;1.00
9824;DHT22;4951;50.778;7.196;2022-09-09T11:48:04;22.60;1.00
9824;DHT22;4951;50.778;7.196;2022-09-09T11:50:35;22.70;1.00
9824;DHT22;4951;50.778;7.196;2022-09-09T11:53:17;22.80;1.00
9824;DHT22;4951;50.778;7.196;2022-09-09T11:56:05;22.80;1.00
9824;DHT22;4951;50.778;7.196;2022-09-09T11:58:38;22.70;1.00
9824;DHT22;4951;50.778;7.196;2022-09-09T12:01:40;22.70;1.00
9824;DHT22;4951;50.778;7.196;2022-09-09T12:04:28;22.50;1.00
9824;DHT22;4951;50.778;7.196;2022-09-09T12:06:59;22.40;1.00
9824;DHT22;4951;50.778;7.196;2022-09-09T12:09:45;22.20;1.00
9824;DHT22;4951;50.778;7.196;2022-09-09T12:12:35;22.20;99.90
9824;DHT22;4951;50.778;7.196;2022-09-09T12:15:27;22.10;1.00
9824;DHT22;4951;50.778;7.196;2022-09-09T12:18:14;22.10;1.00
9824;DHT22;4951;50.778;7.196;2022-09-09T12:21:00;22.00;1.00
9824;DHT22;4951;50.778;7.196;2022-09-09T12:23:51;22.00;1.00
9824;DHT22;4951;50.778;7.196;2022-09-09T12:26:41;21.90;99.90
9824;DHT22;4951;50.778;7.196;2022-09-09T12:29:23;21.90;99.90
9824;DHT22;4951;50.778;7.196;2022-09-09T12:32:10;21.90;1.00
9824;DHT22;4951;50.778;7.196;2022-09-09T12:34:59;21.80;1.00
9824;DHT22;4951;50.778;7.196;2022-09-09T12:37:38;21.70;1.00
9824;DHT22;4951;50.778;7.196;2022-09-09T12:40:26;21.60;1.00
9824;DHT22;4951;50.778;7.196;2022-09-09T12:43:01;21.50;1.00
9824;DHT22;4951;50.778;7.196;2022-09-09T12:45:40;21.50;1.00
9824;DHT22;4951;50.778;7.196;2022-09-09T12:48:09;21.40;1.00
9824;DHT22;4951;50.778;7.196;2022-09-09T12:50:43;21.40;1.00
9824;DHT22;4951;50.778;7.196;2022-09-09T12:53:25;21.30;1.00
9824;DHT22;4951;50.778;7.196;2022-09-09T12:56:18;21.30;1.00
9824;DHT22;4951;50.778;7.196;2022-09-09T12:59:26;21.40;1.00
9824;DHT22;4951;50.778;7.196;2022-09-09T13:02:49;21.50;1.00
9824;DHT22;4951;50.778;7.196;2022-09-09T13:05:34;21.60;1.00
9824;DHT22;4951;50.778;7.196;2022-09-09T13:08:20;21.60;1.00
9824;DHT22;4951;50.778;7.196;2022-09-09T13:11:02;21.50;1.00
9824;DHT22;4951;50.778;7.196;2022-09-09T13:13:36;21.30;1.00
9824;DHT22;4951;50.778;7.196;2022-09-09T13:16:20;21.20;1.00
9824;DHT22;4951;50.778;7.196;2022-09-09T13:18:49;21.10;1.00
9824;DHT22;4951;50.778;7.196;2022-09-09T13:21:17;21.10;1.00
9824;DHT22;4951;50.778;7.196;2022-09-09T13:23:51;21.10;1.00
9824;DHT22;4951;50.778;7.196;2022-09-09T13:26:30;21.30;1.00
9824;DHT22;4951;50.778;7.196;2022-09-09T13:29:14;21.40;1.00
9824;DHT22;4951;50.778;7.196;2022-09-09T13:31:46;21.50;1.00
9824;DHT22;4951;50.778;7.196;2022-09-09T13:34:29;21.50;1.00
9824;DHT22;4951;50.778;7.196;2022-09-09T13:37:03;21.40;1.00
9824;DHT22;4951;50.778;7.196;2022-09-09T13:39:34;21.30;1.00
9824;DHT22;4951;50.778;7.196;2022-09-09T13:42:03;21.10;1.00
9824;DHT22;4951;50.778;7.196;2022-09-09T13:44:49;20.90;1.00
9824;DHT22;4951;50.778;7.196;2022-09-09T13:47:20;20.70;1.00
9824;DHT22;4951;50.778;7.196;2022-09-09T13:49:48;20.90;99.90
9824;DHT22;4951;50.778;7.196;2022-09-09T13:52:19;21.10;99.90
9824;DHT22;4951;50.778;7.196;2022-09-09T13:54:50;21.30;99.90
9824;DHT22;4951;50.778;7.196;2022-09-09T13:57:22;21.50;99.90
9824;DHT22;4951;50.778;7.196;2022-09-09T13:59:52;21.90;99.90
9824;DHT22;4951;50.778;7.196;2022-09-09T14:02:42;22.20;1.00
9824;DHT22;4951;50.778;7.196;2022-09-09T14:05:10;22.20;1.00
9824;DHT22;4951;50.778;7.196;2022-09-09T14:07:52;22.20;1.00
9824;DHT22;4951;50.778;7.196;2022-09-09T14:10:20;22.20;1.00
9824;DHT22;4951;50.778;7.196;2022-09-09T14:12:49;22.20;1.00
9824;DHT22;4951;50.778;7.196;2022-09-09T14:15:17;22.20;1.00
9824;DHT22;4951;50.778;7.196;2022-09-09T14:17:54;22.30;1.00
9824;DHT22;4951;50.778;7.196;2022-09-09T14:20:21;22.50;1.00
9824;DHT22;4951;50.778;7.196;2022-09-09T14:22:53;22.60;1.00
9824;DHT22;4951;50.778;7.196;2022-09-09T14:25:22;22.50;1.00
9824;DHT22;4951;50.778;7.196;2022-09-09T14:27:49;22.30;1.00
9824;DHT22;4951;50.778;7.196;2022-09-09T14:30:17;22.10;1.00
9824;DHT22;4951;50.778;7.196;2022-09-09T14:32:54;21.90;1.00
9824;DHT22;4951;50.778;7.196;2022-09-09T14:35:24;21.90;1.00
9824;DHT22;4951;50.778;7.196;2022-09-09T14:37:53;22.10;1.00
9824;DHT22;4951;50.778;7.196;2022-09-09T14:40:24;23.00;1.00
9824;DHT22;4951;50.778;7.196;2022-09-09T14:45:44;24.40;1.00
9824;DHT22;4951;50.778;7.196;2022-09-09T14:48:28;24.10;99.90
9824;DHT22;4951;50.778;7.196;2022-09-09T14:51:05;23.70;99.90
9824;DHT22;4951;50.778;7.196;2022-09-09T14:53:33;23.20;99.90
9824;DHT22;4951;50.778;7.196;2022-09-09T14:56:05;22.90;99.90
9824;DHT22;4951;50.778;7.196;2022-09-09T14:58:33;22.90;99.90
9824;DHT22;4951;50.778;7.196;2022-09-09T15:01:11;23.10;1.00
9824;DHT22;4951;50.778;7.196;2022-09-09T15:03:41;23.60;1.00
9824;DHT22;4951;50.778;7.196;2022-09-09T15:06:28;23.80;99.90
9824;DHT22;4951;50.778;7.196;2022-09-09T15:09:01;23.60;99.90
9824;DHT22;4951;50.778;7.196;2022-09-09T15:11:30;23.30;99.90
9824;DHT22;4951;50.778;7.196;2022-09-09T15:14:12;23.00;99.90
9824;DHT22;4951;50.778;7.196;2022-09-09T15:17:00;22.60;99.90
9824;DHT22;4951;50.778;7.196;2022-09-09T15:19:33;22.20;99.90
9824;DHT22;4951;50.778;7.196;2022-09-09T15:22:00;22.00;1.00
9824;DHT22;4951;50.778;7.196;2022-09-09T15:24:28;21.70;1.00
9824;DHT22;4951;50.778;7.196;2022-09-09T15:26:55;21.50;1.00
9824;DHT22;4951;50.778;7.196;2022-09-09T15:29:22;21.40;1.00
9824;DHT22;4951;50.778;7.196;2022-09-09T15:31:50;21.20;1.00
9824;DHT22;4951;50.778;7.196;2022-09-09T15:34:18;21.10;1.00
9824;DHT22;4951;50.778;7.196;2022-09-09T15:36:47;20.90;1.00
9824;DHT22;4951;50.778;7.196;2022-09-09T15:39:18;20.80;31.00
9824;DHT22;4951;50.778;7.196;2022-09-09T15:41:48;20.60;99.90
9824;DHT22;4951;50.778;7.196;2022-09-09T15:44:17;20.50;99.90
9824;DHT22;4951;50.778;7.196;2022-09-09T15:46:49;20.40;1.00
9824;DHT22;4951;50.778;7.196;2022-09-09T15:49:18;20.40;1.00
9824;DHT22;4951;50.778;7.196;2022-09-09T15:51:54;20.30;1.00
9824;DHT22;4951;50.778;7.196;2022-09-09T15:54:26;20.30;31.10
9824;DHT22;4951;50.778;7.196;2022-09-09T15:56:55;20.30;99.90
9824;DHT22;4951;50.778;7.196;2022-09-09T15:59:25;20.30;99.90
9824;DHT22;4951;50.778;7.196;2022-09-09T16:01:55;20.30;99.90
9824;DHT22;4951;50.778;7.196;2022-09-09T16:04:24;20.20;99.90
9824;DHT22;4951;50.778;7.196;2022-09-09T16:06:54;20.10;99.90
9824;DHT22;4951;50.778;7.196;2022-09-09T16:09:22;20.00;99.90
9824;DHT22;4951;50.778;7.196;2022-09-09T16:11:49;20.00;99.90
9824;DHT22;4951;50.778;7.196;2022-09-09T16:14:18;19.90;99.90
9824;DHT22;4951;50.778;7.196;2022-09-09T16:17:07;19.90;99.90
9824;DHT22;4951;50.778;7.196;2022-09-09T16:19:35;19.90;99.90
9824;DHT22;4951;50.778;7.196;2022-09-09T16:22:04;19.80;1.00
9824;DHT22;4951;50.778;7.196;2022-09-09T16:24:32;19.80;1.00
9824;DHT22;4951;50.778;7.196;2022-09-09T16:26:59;19.70;99.90
9824;DHT22;4951;50.778;7.196;2022-09-09T16:29:36;19.60;1.00
9824;DHT22;4951;50.778;7.196;2022-09-09T16:32:05;19.50;96.60
9824;DHT22;4951;50.778;7.196;2022-09-09T16:34:37;19.30;1.00
9824;DHT22;4951;50.778;7.196;2022-09-09T16:37:21;19.30;53.20
9824;DHT22;4951;50.778;7.196;2022-09-09T16:39:53;19.20;1.00
9824;DHT22;4951;50.778;7.196;2022-09-09T16:42:21;19.10;1.00
9824;DHT22;4951;50.778;7.196;2022-09-09T16:44:48;19.10;1.00
9824;DHT22;4951;50.778;7.196;2022-09-09T16:47:16;19.00;99.90
9824;DHT22;4951;50.778;7.196;2022-09-09T16:49:43;19.00;1.00
9824;DHT22;4951;50.778;7.196;2022-09-09T16:52:10;18.90;99.90
9824;DHT22;4951;50.778;7.196;2022-09-09T16:54:39;18.90;1.00
9824;DHT22;4951;50.778;7.196;2022-09-09T16:57:06;18.80;99.90
9824;DHT22;4951;50.778;7.196;2022-09-09T16:59:34;18.80;14.90
9824;DHT22;4951;50.778;7.196;2022-09-09T17:02:08;18.70;99.90
9824;DHT22;4951;50.778;7.196;2022-09-09T17:04:38;18.50;1.00
9824;DHT22;4951;50.778;7.196;2022-09-09T17:07:06;18.40;1.00
9824;DHT22;4951;50.778;7.196;2022-09-09T17:09:39;18.20;1.00
9824;DHT22;4951;50.778;7.196;2022-09-09T17:12:08;18.10;99.90
9824;DHT22;4951;50.778;7.196;2022-09-09T17:14:37;17.90;1.00
9824;DHT22;4951;50.778;7.196;2022-09-09T17:17:04;17.80;99.90
9824;DHT22;4951;50.778;7.196;2022-09-09T17:19:34;17.70;1.00
9824;DHT22;4951;50.778;7.196;2022-09-09T17:22:02;17.60;1.00
9824;DHT22;4951;50.778;7.196;2022-09-09T17:24:30;17.60;1.00
9824;DHT22;4951;50.778;7.196;2022-09-09T17:27:03;17.60;1.00
9824;DHT22;4951;50.778;7.196;2022-09-09T17:29:36;17.60;1.00
9824;DHT22;4951;50.778;7.196;2022-09-09T17:32:05;17.50;36.40
9824;DHT22;4951;50.778;7.196;2022-09-09T17:34:33;17.50;99.90
9824;DHT22;4951;50.778;7.196;2022-09-09T17:37:00;17.50;99.90
9824;DHT22;4951;50.778;7.196;2022-09-09T17:39:27;17.50;99.90
9824;DHT22;4951;50.778;7.196;2022-09-09T17:41:58;17.40;99.90
9824;DHT22;4951;50.778;7.196;2022-09-09T17:44:30;17.40;99.90
9824;DHT22;4951;50.778;7.196;2022-09-09T17:46:58;17.30;99.90
9824;DHT22;4951;50.778;7.196;2022-09-09T17:49:32;17.20;99.90
9824;DHT22;4951;50.778;7.196;2022-09-09T17:52:05;17.20;99.90
9824;DHT22;4951;50.778;7.196;2022-09-09T17:54:33;17.10;99.90
9824;DHT22;4951;50.778;7.196;2022-09-09T17:57:03;17.00;99.90
9824;DHT22;4951;50.778;7.196;2022-09-09T17:59:33;17.00;99.90
9824;DHT22;4951;50.778;7.196;2022-09-09T18:02:01;16.90;99.90
9824;DHT22;4951;50.778;7.196;2022-09-09T18:04:30;16.90;99.90
9824;DHT22;4951;50.778;7.196;2022-09-09T18:07:02;16.80;1.00
9824;DHT22;4951;50.778;7.196;2022-09-09T18:09:30;16.80;1.00
9824;DHT22;4951;50.778;7.196;2022-09-09T18:12:00;16.80;1.00
9824;DHT22;4951;50.778;7.196;2022-09-09T18:14:30;16.80;1.00
9824;DHT22;4951;50.778;7.196;2022-09-09T18:17:02;16.80;1.00
9824;DHT22;4951;50.778;7.196;2022-09-09T18:19:38;16.80;1.00